General Aviation Weather

Text Reports

Enter one or more of the following location identifiers separated by a space:

Zip Code, Four-Character ICAO or Three-Character IATA airport codes.

METAR - Aviation Routine Weather Report
KLXV - Leadville, Colorado
Updated at 11:53 AM GMT on July 25, 2016 (5:53 AM MDT):
METAR KLXV 251153Z AUTO 00000KT 10SM CLR 05/03 A3058 RMK AO2 SLP186 70006 T00500028 10106 20033 53003 $
TAF - Terminal Area Forecast
KLXV - Leadville, Colorado
Updated at 11:53 AM GMT on July 25, 2016 (5:53 AM MDT):
No TAF is currently available for this location.
Decoded:
No decoded TAF is available.
PIREP - Pilot Weather Report
KLXV - Leadville, Colorado
Updated at 11:53 AM GMT on July 25, 2016 (5:53 AM MDT):
No PIREP is currently available for this location.
AIRMET - Airmens Meteorological Information
KLXV - Leadville, Colorado
Updated at 11:53 AM GMT on July 25, 2016 (5:53 AM MDT):
No AIRMET is currently available for this location.
SIGMET - Significant Meteorological Information
KLXV - Leadville, Colorado
Updated at 11:53 AM GMT on July 25, 2016 (5:53 AM MDT):
No SIGMET is currently available for this location.
NOTAM - Notice to Airmen
KLXV - Leadville, Colorado
Updated at 11:53 AM GMT on July 25, 2016 (5:53 AM MDT):
No NOTAM is currently available for this location.
Forecast Area
KLXV - Leadville, Colorado
Updated at 11:53 AM GMT on July 25, 2016 (5:53 AM MDT):
No NOTAM is currently available for this location.
Aviation Weather Maps